sensor_id;sensor_type;location;lat;lon;timestamp;temperature;humidity
70074;DHT22;57445;51.058;3.698;2023-01-29T00:01:46;4.00;96.60
70074;DHT22;57445;51.058;3.698;2023-01-29T00:04:13;4.00;97.00
70074;DHT22;57445;51.058;3.698;2023-01-29T00:06:46;4.20;96.70
70074;DHT22;57445;51.058;3.698;2023-01-29T00:09:14;4.10;96.80
70074;DHT22;57445;51.058;3.698;2023-01-29T00:11:46;4.40;96.60
70074;DHT22;57445;51.058;3.698;2023-01-29T00:14:14;4.00;96.60
70074;DHT22;57445;51.058;3.698;2023-01-29T00:16:41;4.00;96.90
70074;DHT22;57445;51.058;3.698;2023-01-29T00:19:13;4.20;96.40
70074;DHT22;57445;51.058;3.698;2023-01-29T00:21:46;4.20;96.10
70074;DHT22;57445;51.058;3.698;2023-01-29T00:24:18;4.20;96.40
70074;DHT22;57445;51.058;3.698;2023-01-29T00:26:50;4.10;96.50
70074;DHT22;57445;51.058;3.698;2023-01-29T00:29:22;4.10;96.60
70074;DHT22;57445;51.058;3.698;2023-01-29T00:31:54;3.90;96.80
70074;DHT22;57445;51.058;3.698;2023-01-29T00:34:22;4.00;97.30
70074;DHT22;57445;51.058;3.698;2023-01-29T00:36:55;4.10;96.60
70074;DHT22;57445;51.058;3.698;2023-01-29T00:39:35;4.30;96.10
70074;DHT22;57445;51.058;3.698;2023-01-29T00:42:09;4.20;96.00
70074;DHT22;57445;51.058;3.698;2023-01-29T00:44:58;4.00;96.20
70074;DHT22;57445;51.058;3.698;2023-01-29T00:47:26;3.80;96.80
70074;DHT22;57445;51.058;3.698;2023-01-29T00:50:05;3.60;97.40
70074;DHT22;57445;51.058;3.698;2023-01-29T00:52:34;3.40;97.80
70074;DHT22;57445;51.058;3.698;2023-01-29T00:55:03;3.70;97.40
70074;DHT22;57445;51.058;3.698;2023-01-29T00:57:35;3.80;97.20
70074;DHT22;57445;51.058;3.698;2023-01-29T01:00:03;4.00;96.80
70074;DHT22;57445;51.058;3.698;2023-01-29T01:02:36;4.10;96.30
70074;DHT22;57445;51.058;3.698;2023-01-29T01:05:21;4.10;96.40
70074;DHT22;57445;51.058;3.698;2023-01-29T01:07:56;3.90;96.70
70074;DHT22;57445;51.058;3.698;2023-01-29T01:10:29;4.00;96.90
70074;DHT22;57445;51.058;3.698;2023-01-29T01:13:01;4.00;96.80
70074;DHT22;57445;51.058;3.698;2023-01-29T01:15:29;3.90;97.00
70074;DHT22;57445;51.058;3.698;2023-01-29T01:18:01;4.00;97.10
70074;DHT22;57445;51.058;3.698;2023-01-29T01:20:34;4.20;96.40
70074;DHT22;57445;51.058;3.698;2023-01-29T01:23:07;4.30;96.30
70074;DHT22;57445;51.058;3.698;2023-01-29T01:25:35;4.30;96.40
70074;DHT22;57445;51.058;3.698;2023-01-29T01:28:07;4.40;96.20
70074;DHT22;57445;51.058;3.698;2023-01-29T01:30:40;4.30;96.20
70074;DHT22;57445;51.058;3.698;2023-01-29T01:33:12;4.10;96.70
70074;DHT22;57445;51.058;3.698;2023-01-29T01:35:40;4.10;97.00
70074;DHT22;57445;51.058;3.698;2023-01-29T01:38:13;4.20;96.60
70074;DHT22;57445;51.058;3.698;2023-01-29T01:40:42;4.30;96.40
70074;DHT22;57445;51.058;3.698;2023-01-29T01:43:14;4.20;96.40
70074;DHT22;57445;51.058;3.698;2023-01-29T01:45:42;4.00;96.90
70074;DHT22;57445;51.058;3.698;2023-01-29T01:48:12;4.00;96.80
70074;DHT22;57445;51.058;3.698;2023-01-29T01:50:47;3.70;97.30
70074;DHT22;57445;51.058;3.698;2023-01-29T01:53:18;3.90;97.10
70074;DHT22;57445;51.058;3.698;2023-01-29T01:55:49;3.90;97.10
70074;DHT22;57445;51.058;3.698;2023-01-29T01:58:23;4.10;96.70
70074;DHT22;57445;51.058;3.698;2023-01-29T02:00:52;4.40;96.30
70074;DHT22;57445;51.058;3.698;2023-01-29T02:03:25;4.40;95.90
70074;DHT22;57445;51.058;3.698;2023-01-29T02:06:16;4.40;96.10
70074;DHT22;57445;51.058;3.698;2023-01-29T02:09:07;4.10;96.50
70074;DHT22;57445;51.058;3.698;2023-01-29T02:11:59;4.10;96.50
70074;DHT22;57445;51.058;3.698;2023-01-29T02:14:26;4.40;96.10
70074;DHT22;57445;51.058;3.698;2023-01-29T02:16:59;4.50;96.00
70074;DHT22;57445;51.058;3.698;2023-01-29T02:19:30;4.50;96.00
70074;DHT22;57445;51.058;3.698;2023-01-29T02:25:18;4.60;95.70
70074;DHT22;57445;51.058;3.698;2023-01-29T02:28:14;4.50;96.00
70074;DHT22;57445;51.058;3.698;2023-01-29T02:30:43;4.50;95.90
70074;DHT22;57445;51.058;3.698;2023-01-29T02:33:22;4.50;95.90
70074;DHT22;57445;51.058;3.698;2023-01-29T02:35:55;4.60;95.90
70074;DHT22;57445;51.058;3.698;2023-01-29T02:38:31;4.80;95.60
70074;DHT22;57445;51.058;3.698;2023-01-29T02:41:03;5.00;95.30
70074;DHT22;57445;51.058;3.698;2023-01-29T02:43:39;5.00;95.00
70074;DHT22;57445;51.058;3.698;2023-01-29T02:46:16;5.10;94.70
70074;DHT22;57445;51.058;3.698;2023-01-29T02:48:53;4.80;95.20
70074;DHT22;57445;51.058;3.698;2023-01-29T02:51:29;4.90;95.80
70074;DHT22;57445;51.058;3.698;2023-01-29T02:53:58;4.60;96.00
70074;DHT22;57445;51.058;3.698;2023-01-29T02:56:33;4.80;95.80
70074;DHT22;57445;51.058;3.698;2023-01-29T02:59:06;4.30;95.90
70074;DHT22;57445;51.058;3.698;2023-01-29T03:01:40;4.30;96.60
70074;DHT22;57445;51.058;3.698;2023-01-29T03:04:11;4.50;96.30
70074;DHT22;57445;51.058;3.698;2023-01-29T03:06:42;4.60;96.00
70074;DHT22;57445;51.058;3.698;2023-01-29T03:09:13;4.80;95.80
70074;DHT22;57445;51.058;3.698;2023-01-29T03:11:48;4.70;95.50
70074;DHT22;57445;51.058;3.698;2023-01-29T03:14:19;4.90;95.50
70074;DHT22;57445;51.058;3.698;2023-01-29T03:16:52;5.00;95.10
70074;DHT22;57445;51.058;3.698;2023-01-29T03:19:26;4.80;95.30
70074;DHT22;57445;51.058;3.698;2023-01-29T03:21:57;5.20;95.70
70074;DHT22;57445;51.058;3.698;2023-01-29T03:24:33;4.80;95.40
70074;DHT22;57445;51.058;3.698;2023-01-29T03:27:25;4.60;96.00
70074;DHT22;57445;51.058;3.698;2023-01-29T03:30:13;4.70;96.00
70074;DHT22;57445;51.058;3.698;2023-01-29T03:32:59;4.60;96.10
70074;DHT22;57445;51.058;3.698;2023-01-29T03:35:29;4.90;96.00
70074;DHT22;57445;51.058;3.698;2023-01-29T03:38:06;4.80;95.70
70074;DHT22;57445;51.058;3.698;2023-01-29T03:40:41;4.40;96.10
70074;DHT22;57445;51.058;3.698;2023-01-29T03:43:17;4.40;96.30
70074;DHT22;57445;51.058;3.698;2023-01-29T03:45:55;4.60;95.90
70074;DHT22;57445;51.058;3.698;2023-01-29T03:48:30;4.50;95.90
70074;DHT22;57445;51.058;3.698;2023-01-29T03:51:00;4.70;96.00
70074;DHT22;57445;51.058;3.698;2023-01-29T03:53:35;4.90;95.60
70074;DHT22;57445;51.058;3.698;2023-01-29T03:56:14;5.10;95.10
70074;DHT22;57445;51.058;3.698;2023-01-29T03:58:46;4.90;95.30
70074;DHT22;57445;51.058;3.698;2023-01-29T04:01:23;4.80;95.50
70074;DHT22;57445;51.058;3.698;2023-01-29T04:03:58;4.60;95.50
70074;DHT22;57445;51.058;3.698;2023-01-29T04:06:29;5.00;95.90
70074;DHT22;57445;51.058;3.698;2023-01-29T04:09:03;4.80;95.70
70074;DHT22;57445;51.058;3.698;2023-01-29T04:11:37;5.40;95.20
70074;DHT22;57445;51.058;3.698;2023-01-29T04:14:07;5.20;95.00
70074;DHT22;57445;51.058;3.698;2023-01-29T04:16:43;4.90;95.20
70074;DHT22;57445;51.058;3.698;2023-01-29T04:19:17;4.90;95.20
70074;DHT22;57445;51.058;3.698;2023-01-29T04:21:45;5.00;95.30
70074;DHT22;57445;51.058;3.698;2023-01-29T04:24:19;5.00;95.20
70074;DHT22;57445;51.058;3.698;2023-01-29T04:26:55;4.80;95.70
70074;DHT22;57445;51.058;3.698;2023-01-29T04:29:32;5.10;95.00
70074;DHT22;57445;51.058;3.698;2023-01-29T04:32:10;5.00;95.20
70074;DHT22;57445;51.058;3.698;2023-01-29T04:34:50;4.90;95.60
70074;DHT22;57445;51.058;3.698;2023-01-29T04:37:35;4.90;95.70
70074;DHT22;57445;51.058;3.698;2023-01-29T04:40:07;4.80;95.50
70074;DHT22;57445;51.058;3.698;2023-01-29T04:42:43;4.60;95.90
70074;DHT22;57445;51.058;3.698;2023-01-29T04:45:15;4.80;95.90
70074;DHT22;57445;51.058;3.698;2023-01-29T04:47:47;5.00;95.30
70074;DHT22;57445;51.058;3.698;2023-01-29T04:50:22;5.10;95.30
70074;DHT22;57445;51.058;3.698;2023-01-29T04:52:52;5.30;94.90
70074;DHT22;57445;51.058;3.698;2023-01-29T04:55:24;5.10;95.30
70074;DHT22;57445;51.058;3.698;2023-01-29T04:58:01;5.10;95.20
70074;DHT22;57445;51.058;3.698;2023-01-29T05:00:32;5.10;95.30
70074;DHT22;57445;51.058;3.698;2023-01-29T05:03:06;4.70;95.70
70074;DHT22;57445;51.058;3.698;2023-01-29T05:05:42;4.50;96.40
70074;DHT22;57445;51.058;3.698;2023-01-29T05:08:11;4.70;96.40
70074;DHT22;57445;51.058;3.698;2023-01-29T05:10:44;4.80;95.90
70074;DHT22;57445;51.058;3.698;2023-01-29T05:13:17;5.10;95.90
70074;DHT22;57445;51.058;3.698;2023-01-29T05:15:51;5.20;95.50
70074;DHT22;57445;51.058;3.698;2023-01-29T05:18:26;4.80;95.80
70074;DHT22;57445;51.058;3.698;2023-01-29T05:21:00;4.80;95.90
70074;DHT22;57445;51.058;3.698;2023-01-29T05:23:33;5.00;96.00
70074;DHT22;57445;51.058;3.698;2023-01-29T05:26:01;5.10;95.80
70074;DHT22;57445;51.058;3.698;2023-01-29T05:28:29;4.80;95.80
70074;DHT22;57445;51.058;3.698;2023-01-29T05:31:01;4.60;96.70
70074;DHT22;57445;51.058;3.698;2023-01-29T05:33:30;4.80;96.20
70074;DHT22;57445;51.058;3.698;2023-01-29T05:35:58;4.90;96.00
70074;DHT22;57445;51.058;3.698;2023-01-29T05:38:30;5.00;95.80
70074;DHT22;57445;51.058;3.698;2023-01-29T05:41:02;5.30;95.40
70074;DHT22;57445;51.058;3.698;2023-01-29T05:43:29;5.40;95.20
70074;DHT22;57445;51.058;3.698;2023-01-29T05:45:57;5.40;95.20
70074;DHT22;57445;51.058;3.698;2023-01-29T05:48:25;5.40;95.20
70074;DHT22;57445;51.058;3.698;2023-01-29T05:50:58;5.50;95.20
70074;DHT22;57445;51.058;3.698;2023-01-29T05:53:31;5.40;95.30
70074;DHT22;57445;51.058;3.698;2023-01-29T05:55:59;5.40;95.10
70074;DHT22;57445;51.058;3.698;2023-01-29T05:58:32;5.40;95.10
70074;DHT22;57445;51.058;3.698;2023-01-29T06:01:07;5.50;95.30
70074;DHT22;57445;51.058;3.698;2023-01-29T06:03:39;5.40;95.30
70074;DHT22;57445;51.058;3.698;2023-01-29T06:06:12;5.10;95.50
70074;DHT22;57445;51.058;3.698;2023-01-29T06:08:40;5.30;95.80
70074;DHT22;57445;51.058;3.698;2023-01-29T06:11:08;5.10;95.50
70074;DHT22;57445;51.058;3.698;2023-01-29T06:13:41;5.10;95.90
70074;DHT22;57445;51.058;3.698;2023-01-29T06:16:14;5.00;95.90
70074;DHT22;57445;51.058;3.698;2023-01-29T06:18:46;4.80;96.30
70074;DHT22;57445;51.058;3.698;2023-01-29T06:21:14;5.20;96.10
70074;DHT22;57445;51.058;3.698;2023-01-29T06:23:42;5.20;95.70
70074;DHT22;57445;51.058;3.698;2023-01-29T06:26:14;4.90;96.00
70074;DHT22;57445;51.058;3.698;2023-01-29T06:28:47;4.90;96.00
70074;DHT22;57445;51.058;3.698;2023-01-29T06:31:19;4.90;96.00
70074;DHT22;57445;51.058;3.698;2023-01-29T06:33:46;5.00;96.10
70074;DHT22;57445;51.058;3.698;2023-01-29T06:36:20;5.10;95.90
70074;DHT22;57445;51.058;3.698;2023-01-29T06:38:52;5.00;96.00
70074;DHT22;57445;51.058;3.698;2023-01-29T06:41:19;5.30;95.60
70074;DHT22;57445;51.058;3.698;2023-01-29T06:43:54;5.40;95.30
70074;DHT22;57445;51.058;3.698;2023-01-29T06:46:26;5.10;95.40
70074;DHT22;57445;51.058;3.698;2023-01-29T06:48:58;5.20;95.70
70074;DHT22;57445;51.058;3.698;2023-01-29T06:51:32;5.30;95.60
70074;DHT22;57445;51.058;3.698;2023-01-29T06:54:04;5.20;95.60
70074;DHT22;57445;51.058;3.698;2023-01-29T06:56:38;5.20;95.70
70074;DHT22;57445;51.058;3.698;2023-01-29T06:59:10;5.50;95.30
70074;DHT22;57445;51.058;3.698;2023-01-29T07:01:42;5.60;95.00
70074;DHT22;57445;51.058;3.698;2023-01-29T07:04:10;5.60;94.90
70074;DHT22;57445;51.058;3.698;2023-01-29T07:06:43;5.60;95.20
70074;DHT22;57445;51.058;3.698;2023-01-29T07:09:15;5.50;95.00
70074;DHT22;57445;51.058;3.698;2023-01-29T07:11:42;5.50;95.00
70074;DHT22;57445;51.058;3.698;2023-01-29T07:14:14;5.60;95.00
70074;DHT22;57445;51.058;3.698;2023-01-29T07:16:42;5.70;94.90
70074;DHT22;57445;51.058;3.698;2023-01-29T07:19:14;5.70;94.80
70074;DHT22;57445;51.058;3.698;2023-01-29T07:21:47;5.60;95.10
70074;DHT22;57445;51.058;3.698;2023-01-29T07:24:19;5.50;95.30
70074;DHT22;57445;51.058;3.698;2023-01-29T07:26:46;5.90;94.40
70074;DHT22;57445;51.058;3.698;2023-01-29T07:29:14;5.70;94.90
70074;DHT22;57445;51.058;3.698;2023-01-29T07:31:46;6.20;94.90
70074;DHT22;57445;51.058;3.698;2023-01-29T07:34:18;5.70;94.70
70074;DHT22;57445;51.058;3.698;2023-01-29T07:36:53;5.70;95.20
70074;DHT22;57445;51.058;3.698;2023-01-29T07:39:22;5.70;95.20
70074;DHT22;57445;51.058;3.698;2023-01-29T07:41:54;5.70;95.10
70074;DHT22;57445;51.058;3.698;2023-01-29T07:44:26;5.80;95.10
70074;DHT22;57445;51.058;3.698;2023-01-29T07:46:53;5.90;94.50
70074;DHT22;57445;51.058;3.698;2023-01-29T07:49:25;6.10;94.40
70074;DHT22;57445;51.058;3.698;2023-01-29T07:51:54;5.60;95.00
70074;DHT22;57445;51.058;3.698;2023-01-29T07:54:26;5.60;95.20
70074;DHT22;57445;51.058;3.698;2023-01-29T07:56:53;5.80;95.20
70074;DHT22;57445;51.058;3.698;2023-01-29T07:59:25;6.00;94.60
70074;DHT22;57445;51.058;3.698;2023-01-29T08:01:57;6.20;94.20
70074;DHT22;57445;51.058;3.698;2023-01-29T08:04:29;6.10;94.30
70074;DHT22;57445;51.058;3.698;2023-01-29T08:07:03;6.10;94.30
70074;DHT22;57445;51.058;3.698;2023-01-29T08:09:35;6.00;94.30
70074;DHT22;57445;51.058;3.698;2023-01-29T08:12:03;5.70;94.90
70074;DHT22;57445;51.058;3.698;2023-01-29T08:14:30;5.50;95.10
70074;DHT22;57445;51.058;3.698;2023-01-29T08:16:58;5.40;95.60
70074;DHT22;57445;51.058;3.698;2023-01-29T08:19:30;5.70;95.10
70074;DHT22;57445;51.058;3.698;2023-01-29T08:22:03;6.00;94.70
70074;DHT22;57445;51.058;3.698;2023-01-29T08:24:31;6.00;94.70
70074;DHT22;57445;51.058;3.698;2023-01-29T08:27:03;6.10;94.40
70074;DHT22;57445;51.058;3.698;2023-01-29T08:29:35;5.70;94.60
70074;DHT22;57445;51.058;3.698;2023-01-29T08:32:02;5.40;95.40
70074;DHT22;57445;51.058;3.698;2023-01-29T08:34:30;5.50;95.30
70074;DHT22;57445;51.058;3.698;2023-01-29T08:36:57;6.10;94.60
70074;DHT22;57445;51.058;3.698;2023-01-29T08:39:26;6.30;94.20
70074;DHT22;57445;51.058;3.698;2023-01-29T08:41:53;6.30;94.10
70074;DHT22;57445;51.058;3.698;2023-01-29T08:44:21;6.50;93.70
70074;DHT22;57445;51.058;3.698;2023-01-29T08:46:48;6.30;93.70
70074;DHT22;57445;51.058;3.698;2023-01-29T08:49:15;6.60;93.30
70074;DHT22;57445;51.058;3.698;2023-01-29T08:51:47;6.60;93.40
70074;DHT22;57445;51.058;3.698;2023-01-29T08:54:16;6.50;93.30
70074;DHT22;57445;51.058;3.698;2023-01-29T08:56:45;6.30;93.90
70074;DHT22;57445;51.058;3.698;2023-01-29T08:59:17;6.40;93.70
70074;DHT22;57445;51.058;3.698;2023-01-29T09:01:45;6.40;93.90
70074;DHT22;57445;51.058;3.698;2023-01-29T09:04:17;6.60;93.30
70074;DHT22;57445;51.058;3.698;2023-01-29T09:06:49;6.50;93.60
70074;DHT22;57445;51.058;3.698;2023-01-29T09:09:17;6.30;93.90
70074;DHT22;57445;51.058;3.698;2023-01-29T09:11:50;6.20;94.10
70074;DHT22;57445;51.058;3.698;2023-01-29T09:14:22;6.00;94.40
70074;DHT22;57445;51.058;3.698;2023-01-29T09:16:49;6.30;93.90
70074;DHT22;57445;51.058;3.698;2023-01-29T09:19:21;6.30;93.90
70074;DHT22;57445;51.058;3.698;2023-01-29T09:21:49;6.40;93.90
70074;DHT22;57445;51.058;3.698;2023-01-29T09:24:21;6.20;93.90
70074;DHT22;57445;51.058;3.698;2023-01-29T09:26:54;6.30;94.00
70074;DHT22;57445;51.058;3.698;2023-01-29T09:29:26;6.10;94.20
70074;DHT22;57445;51.058;3.698;2023-01-29T09:31:53;6.10;94.40
70074;DHT22;57445;51.058;3.698;2023-01-29T09:34:21;6.30;93.90
70074;DHT22;57445;51.058;3.698;2023-01-29T09:36:48;6.50;93.70
70074;DHT22;57445;51.058;3.698;2023-01-29T09:39:22;6.60;93.60
70074;DHT22;57445;51.058;3.698;2023-01-29T09:41:57;6.50;93.60
70074;DHT22;57445;51.058;3.698;2023-01-29T09:44:29;6.70;93.20
70074;DHT22;57445;51.058;3.698;2023-01-29T09:46:59;6.20;93.60
70074;DHT22;57445;51.058;3.698;2023-01-29T09:49:35;6.10;94.20
70074;DHT22;57445;51.058;3.698;2023-01-29T09:52:11;5.80;94.80
70074;DHT22;57445;51.058;3.698;2023-01-29T09:54:47;6.20;94.30
70074;DHT22;57445;51.058;3.698;2023-01-29T09:57:23;6.40;93.90
70074;DHT22;57445;51.058;3.698;2023-01-29T09:59:51;6.60;93.70
70074;DHT22;57445;51.058;3.698;2023-01-29T10:02:40;6.90;93.40
70074;DHT22;57445;51.058;3.698;2023-01-29T10:05:15;6.80;93.40
70074;DHT22;57445;51.058;3.698;2023-01-29T10:10:40;6.70;93.40
70074;DHT22;57445;51.058;3.698;2023-01-29T10:13:18;7.00;93.00
70074;DHT22;57445;51.058;3.698;2023-01-29T10:15:54;7.10;93.00
70074;DHT22;57445;51.058;3.698;2023-01-29T10:18:32;7.20;92.50
70074;DHT22;57445;51.058;3.698;2023-01-29T10:21:03;7.40;92.40
70074;DHT22;57445;51.058;3.698;2023-01-29T10:23:35;7.30;92.40
70074;DHT22;57445;51.058;3.698;2023-01-29T10:26:08;7.10;92.40
70074;DHT22;57445;51.058;3.698;2023-01-29T10:28:40;7.10;92.60
70074;DHT22;57445;51.058;3.698;2023-01-29T10:31:11;6.90;93.00
70074;DHT22;57445;51.058;3.698;2023-01-29T10:33:45;7.20;92.90
70074;DHT22;57445;51.058;3.698;2023-01-29T10:36:15;7.40;92.70
70074;DHT22;57445;51.058;3.698;2023-01-29T10:38:45;7.80;92.00
70074;DHT22;57445;51.058;3.698;2023-01-29T10:41:16;7.70;91.80
70074;DHT22;57445;51.058;3.698;2023-01-29T10:43:53;7.50;92.40
70074;DHT22;57445;51.058;3.698;2023-01-29T10:46:33;7.70;92.10
70074;DHT22;57445;51.058;3.698;2023-01-29T10:49:07;7.70;92.00
70074;DHT22;57445;51.058;3.698;2023-01-29T10:51:45;8.00;91.50
70074;DHT22;57445;51.058;3.698;2023-01-29T10:54:26;8.00;91.80
70074;DHT22;57445;51.058;3.698;2023-01-29T10:56:58;8.00;91.50
70074;DHT22;57445;51.058;3.698;2023-01-29T10:59:38;8.10;91.60
70074;DHT22;57445;51.058;3.698;2023-01-29T11:02:14;8.40;90.90
70074;DHT22;57445;51.058;3.698;2023-01-29T11:04:43;8.50;91.10
70074;DHT22;57445;51.058;3.698;2023-01-29T11:07:10;8.20;91.00
70074;DHT22;57445;51.058;3.698;2023-01-29T11:09:40;8.10;91.20
70074;DHT22;57445;51.058;3.698;2023-01-29T11:12:09;8.00;91.50
70074;DHT22;57445;51.058;3.698;2023-01-29T11:14:41;8.30;90.90
70074;DHT22;57445;51.058;3.698;2023-01-29T11:17:13;8.60;90.70
70074;DHT22;57445;51.058;3.698;2023-01-29T11:19:46;8.50;90.50
70074;DHT22;57445;51.058;3.698;2023-01-29T11:22:18;8.30;90.60
70074;DHT22;57445;51.058;3.698;2023-01-29T11:24:48;8.20;90.40
70074;DHT22;57445;51.058;3.698;2023-01-29T11:27:33;8.00;90.60
70074;DHT22;57445;51.058;3.698;2023-01-29T11:30:09;7.40;91.50
70074;DHT22;57445;51.058;3.698;2023-01-29T11:32:48;7.30;91.90
70074;DHT22;57445;51.058;3.698;2023-01-29T11:35:21;7.40;91.90
70074;DHT22;57445;51.058;3.698;2023-01-29T11:37:55;7.30;92.30
70074;DHT22;57445;51.058;3.698;2023-01-29T11:40:37;7.80;91.60
70074;DHT22;57445;51.058;3.698;2023-01-29T11:43:17;7.70;91.30
70074;DHT22;57445;51.058;3.698;2023-01-29T11:45:51;7.40;91.90
70074;DHT22;57445;51.058;3.698;2023-01-29T11:48:25;7.90;91.40
70074;DHT22;57445;51.058;3.698;2023-01-29T11:50:56;8.10;91.00
70074;DHT22;57445;51.058;3.698;2023-01-29T11:53:32;8.50;90.50
70074;DHT22;57445;51.058;3.698;2023-01-29T11:56:01;9.00;89.80
70074;DHT22;57445;51.058;3.698;2023-01-29T11:58:36;8.70;90.00
70074;DHT22;57445;51.058;3.698;2023-01-29T12:01:05;8.30;90.70
70074;DHT22;57445;51.058;3.698;2023-01-29T12:03:33;8.70;90.30
70074;DHT22;57445;51.058;3.698;2023-01-29T12:06:07;8.60;90.10
70074;DHT22;57445;51.058;3.698;2023-01-29T12:08:38;8.90;88.90
70074;DHT22;57445;51.058;3.698;2023-01-29T12:13:35;8.70;89.20
70074;DHT22;57445;51.058;3.698;2023-01-29T12:16:26;8.70;89.70
70074;DHT22;57445;51.058;3.698;2023-01-29T12:22:07;8.30;90.10
70074;DHT22;57445;51.058;3.698;2023-01-29T12:25:06;7.60;91.10
70074;DHT22;57445;51.058;3.698;2023-01-29T12:28:14;7.40;91.70
70074;DHT22;57445;51.058;3.698;2023-01-29T12:30:47;7.90;91.30
70074;DHT22;57445;51.058;3.698;2023-01-29T12:33:21;7.90;91.20
70074;DHT22;57445;51.058;3.698;2023-01-29T12:35:55;7.70;91.30
70074;DHT22;57445;51.058;3.698;2023-01-29T12:38:25;7.50;92.00
70074;DHT22;57445;51.058;3.698;2023-01-29T12:40:54;8.00;91.50
70074;DHT22;57445;51.058;3.698;2023-01-29T12:43:26;7.90;91.40
70074;DHT22;57445;51.058;3.698;2023-01-29T12:46:09;8.00;91.10
70074;DHT22;57445;51.058;3.698;2023-01-29T12:48:41;8.10;91.40
70074;DHT22;57445;51.058;3.698;2023-01-29T12:51:10;8.50;90.40
70074;DHT22;57445;51.058;3.698;2023-01-29T12:53:42;8.70;90.30
70074;DHT22;57445;51.058;3.698;2023-01-29T12:56:12;8.90;90.10
70074;DHT22;57445;51.058;3.698;2023-01-29T12:58:43;8.90;89.00
70074;DHT22;57445;51.058;3.698;2023-01-29T13:01:13;8.30;90.40
70074;DHT22;57445;51.058;3.698;2023-01-29T13:03:47;8.00;90.60
70074;DHT22;57445;51.058;3.698;2023-01-29T13:06:17;8.20;90.80
70074;DHT22;57445;51.058;3.698;2023-01-29T13:08:47;8.30;91.00
70074;DHT22;57445;51.058;3.698;2023-01-29T13:11:18;8.70;90.60
70074;DHT22;57445;51.058;3.698;2023-01-29T13:13:48;8.70;90.20
70074;DHT22;57445;51.058;3.698;2023-01-29T13:16:18;8.60;90.40
70074;DHT22;57445;51.058;3.698;2023-01-29T13:18:51;8.70;90.20
70074;DHT22;57445;51.058;3.698;2023-01-29T13:21:22;8.60;90.30
70074;DHT22;57445;51.058;3.698;2023-01-29T13:23:51;8.60;90.50
70074;DHT22;57445;51.058;3.698;2023-01-29T13:26:20;8.50;90.80
70074;DHT22;57445;51.058;3.698;2023-01-29T13:28:49;8.10;91.10
70074;DHT22;57445;51.058;3.698;2023-01-29T13:31:22;7.80;92.00
70074;DHT22;57445;51.058;3.698;2023-01-29T13:33:54;7.80;91.90
70074;DHT22;57445;51.058;3.698;2023-01-29T13:36:25;8.00;91.70
70074;DHT22;57445;51.058;3.698;2023-01-29T13:38:55;8.30;91.10
70074;DHT22;57445;51.058;3.698;2023-01-29T13:41:30;8.60;90.90
70074;DHT22;57445;51.058;3.698;2023-01-29T13:43:58;8.70;90.50
70074;DHT22;57445;51.058;3.698;2023-01-29T13:46:26;8.70;90.40
70074;DHT22;57445;51.058;3.698;2023-01-29T13:48:56;8.60;90.60
70074;DHT22;57445;51.058;3.698;2023-01-29T13:51:32;8.10;91.30
70074;DHT22;57445;51.058;3.698;2023-01-29T13:54:01;8.20;91.20
70074;DHT22;57445;51.058;3.698;2023-01-29T13:56:41;8.40;91.00
70074;DHT22;57445;51.058;3.698;2023-01-29T13:59:21;8.30;91.10
70074;DHT22;57445;51.058;3.698;2023-01-29T14:01:59;8.20;91.20
70074;DHT22;57445;51.058;3.698;2023-01-29T14:04:31;8.10;91.20
70074;DHT22;57445;51.058;3.698;2023-01-29T14:06:59;7.90;91.80
70074;DHT22;57445;51.058;3.698;2023-01-29T14:09:33;8.00;91.70
70074;DHT22;57445;51.058;3.698;2023-01-29T14:12:38;7.90;91.90
70074;DHT22;57445;51.058;3.698;2023-01-29T14:15:29;7.70;92.00
70074;DHT22;57445;51.058;3.698;2023-01-29T14:18:13;7.50;92.40
70074;DHT22;57445;51.058;3.698;2023-01-29T14:20:54;7.00;93.40
70074;DHT22;57445;51.058;3.698;2023-01-29T14:23:26;6.90;93.70
70074;DHT22;57445;51.058;3.698;2023-01-29T14:25:55;7.10;93.60
70074;DHT22;57445;51.058;3.698;2023-01-29T14:28:32;7.30;93.30
70074;DHT22;57445;51.058;3.698;2023-01-29T14:31:00;7.00;93.80
70074;DHT22;57445;51.058;3.698;2023-01-29T14:33:33;7.00;93.90
70074;DHT22;57445;51.058;3.698;2023-01-29T14:36:08;7.20;93.30
70074;DHT22;57445;51.058;3.698;2023-01-29T14:38:45;7.40;93.40
70074;DHT22;57445;51.058;3.698;2023-01-29T14:41:15;7.30;93.40
70074;DHT22;57445;51.058;3.698;2023-01-29T14:43:45;7.50;93.50
70074;DHT22;57445;51.058;3.698;2023-01-29T14:49:02;7.70;92.80
70074;DHT22;57445;51.058;3.698;2023-01-29T14:51:33;7.70;93.00
70074;DHT22;57445;51.058;3.698;2023-01-29T14:54:03;7.50;93.20
70074;DHT22;57445;51.058;3.698;2023-01-29T14:56:32;7.50;93.40
70074;DHT22;57445;51.058;3.698;2023-01-29T14:59:10;7.70;93.10
70074;DHT22;57445;51.058;3.698;2023-01-29T15:01:42;8.30;92.90
70074;DHT22;57445;51.058;3.698;2023-01-29T15:04:13;8.00;92.70
70074;DHT22;57445;51.058;3.698;2023-01-29T15:06:47;8.20;92.50
70074;DHT22;57445;51.058;3.698;2023-01-29T15:09:19;8.40;91.90
70074;DHT22;57445;51.058;3.698;2023-01-29T15:11:54;8.60;91.90
70074;DHT22;57445;51.058;3.698;2023-01-29T15:14:28;8.90;92.10
70074;DHT22;57445;51.058;3.698;2023-01-29T15:17:03;8.80;91.60
70074;DHT22;57445;51.058;3.698;2023-01-29T15:19:33;8.20;92.00
70074;DHT22;57445;51.058;3.698;2023-01-29T15:22:12;8.10;92.20
70074;DHT22;57445;51.058;3.698;2023-01-29T15:24:41;8.10;92.40
70074;DHT22;57445;51.058;3.698;2023-01-29T15:27:11;8.00;92.80
70074;DHT22;57445;51.058;3.698;2023-01-29T15:29:40;7.90;93.00
70074;DHT22;57445;51.058;3.698;2023-01-29T15:32:10;7.80;93.00
70074;DHT22;57445;51.058;3.698;2023-01-29T15:34:42;7.70;93.20
70074;DHT22;57445;51.058;3.698;2023-01-29T15:37:26;7.60;93.80
70074;DHT22;57445;51.058;3.698;2023-01-29T15:39:55;7.90;93.30
70074;DHT22;57445;51.058;3.698;2023-01-29T15:42:25;7.80;93.60
70074;DHT22;57445;51.058;3.698;2023-01-29T15:44:53;8.00;93.20
70074;DHT22;57445;51.058;3.698;2023-01-29T15:47:22;8.30;93.10
70074;DHT22;57445;51.058;3.698;2023-01-29T15:49:52;8.00;92.80
70074;DHT22;57445;51.058;3.698;2023-01-29T15:52:27;8.10;93.10
70074;DHT22;57445;51.058;3.698;2023-01-29T15:54:55;8.40;93.00
70074;DHT22;57445;51.058;3.698;2023-01-29T15:57:28;7.80;93.40
70074;DHT22;57445;51.058;3.698;2023-01-29T15:59:59;7.90;93.40
70074;DHT22;57445;51.058;3.698;2023-01-29T16:02:34;7.90;93.60
70074;DHT22;57445;51.058;3.698;2023-01-29T16:05:03;7.80;93.50
70074;DHT22;57445;51.058;3.698;2023-01-29T16:07:34;8.00;93.20
70074;DHT22;57445;51.058;3.698;2023-01-29T16:10:03;7.70;93.70
70074;DHT22;57445;51.058;3.698;2023-01-29T16:12:31;7.50;94.30
70074;DHT22;57445;51.058;3.698;2023-01-29T16:15:01;7.50;94.30
70074;DHT22;57445;51.058;3.698;2023-01-29T16:17:30;7.30;94.70
70074;DHT22;57445;51.058;3.698;2023-01-29T16:20:01;7.50;94.40
70074;DHT22;57445;51.058;3.698;2023-01-29T16:22:29;7.10;94.60
70074;DHT22;57445;51.058;3.698;2023-01-29T16:25:04;7.50;94.40
70074;DHT22;57445;51.058;3.698;2023-01-29T16:27:33;7.80;95.40
70074;DHT22;57445;51.058;3.698;2023-01-29T16:30:03;7.70;94.60
70074;DHT22;57445;51.058;3.698;2023-01-29T16:32:32;7.60;94.50
70074;DHT22;57445;51.058;3.698;2023-01-29T16:35:00;7.70;94.70